PRIVATE WETTERSTATION BILLIGHEIM-ALLFELD                       ZURCK
Wetterdaten: Sonntag, 22.01.2017
Datum Zeit Temp. A. Temp. A. min Temp. A. max Feuchte A. Luftdruck Regen Wind Richtung Richtung Sonnenschein ET Solar Taupunkt Windchill Windben Empfang
22.01.2017 00:00 -7,9 C -7,9 C -7,7 C 84 % 1028,9 hPa 0,0 l/m 0,0 km/h (0 Bft) N 0 0 min 0,000 mm 0 W/m -10,1 C -7,9 C 0,0 km/h (0 Bft) 100 %
22.01.2017 00:10 -7,9 C -8,0 C -7,9 C 86 % 1028,9 hPa 0,0 l/m 0,0 km/h (0 Bft) N 0 0 min 0,000 mm 0 W/m -9,8 C -7,9 C 0,0 km/h (0 Bft) 81 %
22.01.2017 00:20 -7,9 C -7,9 C -7,8 C 84 % 1028,9 hPa 0,0 l/m 0,0 km/h (0 Bft) N 0 0 min 0,000 mm 0 W/m -10,1 C -7,9 C 0,0 km/h (0 Bft) 100 %
22.01.2017 00:30 -8,2 C -8,2 C -7,9 C 84 % 1028,9 hPa 0,0 l/m 0,0 km/h (0 Bft) N 0 0 min 0,000 mm 0 W/m -10,4 C -8,2 C 0,0 km/h (0 Bft) 100 %
22.01.2017 00:40 -8,4 C -8,4 C -8,2 C 85 % 1028,8 hPa 0,0 l/m 0,0 km/h (0 Bft) N 0 0 min 0,000 mm 0 W/m -10,5 C -8,4 C 0,0 km/h (0 Bft) 100 %
22.01.2017 00:50 -8,4 C -8,4 C -8,3 C 85 % 1028,8 hPa 0,0 l/m 0,0 km/h (0 Bft) N 0 0 min 0,000 mm 0 W/m -10,5 C -8,4 C 0,0 km/h (0 Bft) 89 %
22.01.2017 01:00 -8,6 C -8,6 C -8,4 C 85 % 1028,7 hPa 0,0 l/m 0,0 km/h (0 Bft) N-NW 337 0 min 0,000 mm 0 W/m -10,7 C -8,6 C 3,2 km/h (1 Bft) 100 %
22.01.2017 01:10 -8,8 C -8,8 C -8,6 C 86 % 1028,6 hPa 0,0 l/m 0,0 km/h (0 Bft) N-NW 337 0 min 0,000 mm 0 W/m -10,7 C -8,8 C 1,6 km/h (1 Bft) 100 %
22.01.2017 01:20 -8,9 C -8,9 C -8,8 C 86 % 1028,6 hPa 0,0 l/m 0,0 km/h (0 Bft) N 0 0 min 0,000 mm 0 W/m -10,8 C -8,9 C 0,0 km/h (0 Bft) 100 %
22.01.2017 01:30 -9,1 C -9,1 C -8,9 C 86 % 1028,4 hPa 0,0 l/m 0,0 km/h (0 Bft) N 0 0 min 0,000 mm 0 W/m -11,0 C -9,1 C 0,0 km/h (0 Bft) 100 %
22.01.2017 01:40 -9,4 C -9,4 C -9,1 C 87 % 1028,4 hPa 0,0 l/m 0,0 km/h (0 Bft) N 0 0 min 0,000 mm 0 W/m -11,2 C -9,4 C 0,0 km/h (0 Bft) 89 %
22.01.2017 01:50 -9,4 C -9,4 C -9,4 C 87 % 1028,4 hPa 0,0 l/m 0,0 km/h (0 Bft) N 0 0 min 0,000 mm 0 W/m -11,2 C -9,4 C 0,0 km/h (0 Bft) 100 %
22.01.2017 02:00 -9,7 C -9,7 C -9,4 C 87 % 1028,4 hPa 0,0 l/m 0,0 km/h (0 Bft) N 0 0 min 0,000 mm 0 W/m -11,4 C -9,7 C 0,0 km/h (0 Bft) 100 %
22.01.2017 02:10 -9,8 C -9,8 C -9,7 C 88 % 1028,3 hPa 0,0 l/m 0,0 km/h (0 Bft) N 0 0 min 0,000 mm 0 W/m -11,4 C -9,8 C 0,0 km/h (0 Bft) 100 %
22.01.2017 02:20 -9,9 C -9,9 C -9,8 C 88 % 1028,3 hPa 0,0 l/m 0,0 km/h (0 Bft) N 0 0 min 0,000 mm 0 W/m -11,5 C -9,9 C 0,0 km/h (0 Bft) 100 %
22.01.2017 02:30 -10,1 C -10,1 C -9,9 C 88 % 1028,3 hPa 0,0 l/m 0,0 km/h (0 Bft) N 0 0 min 0,000 mm 0 W/m -11,7 C -10,1 C 0,0 km/h (0 Bft) 100 %
22.01.2017 02:40 -10,2 C -10,2 C -10,1 C 88 % 1028,1 hPa 0,0 l/m 0,0 km/h (0 Bft) N-NW 337 0 min 0,000 mm 0 W/m -11,8 C -10,2 C 1,6 km/h (1 Bft) 100 %
22.01.2017 02:50 -10,1 C -10,2 C -10,1 C 89 % 1028,1 hPa 0,0 l/m 0,0 km/h (0 Bft) N 0 0 min 0,000 mm 0 W/m -11,6 C -10,1 C 0,0 km/h (0 Bft) 100 %
22.01.2017 03:00 -10,1 C -10,1 C -10,1 C 89 % 1028,0 hPa 0,0 l/m 0,0 km/h (0 Bft) N-NW 337 0 min 0,000 mm 0 W/m -11,6 C -10,1 C 1,6 km/h (1 Bft) 100 %
22.01.2017 03:10 -10,1 C -10,1 C -10,1 C 88 % 1028,1 hPa 0,0 l/m 0,0 km/h (0 Bft) N 0 0 min 0,000 mm 0 W/m -11,7 C -10,1 C 0,0 km/h (0 Bft) 100 %
22.01.2017 03:20 -10,1 C -10,1 C -10,1 C 89 % 1028,0 hPa 0,0 l/m 0,0 km/h (0 Bft) N 0 0 min 0,000 mm 0 W/m -11,6 C -10,1 C 0,0 km/h (0 Bft) 100 %
22.01.2017 03:30 -10,2 C -10,2 C -10,1 C 88 % 1028,0 hPa 0,0 l/m 0,0 km/h (0 Bft) N 0 0 min 0,000 mm 0 W/m -11,8 C -10,2 C 0,0 km/h (0 Bft) 100 %
22.01.2017 03:40 -10,3 C -10,3 C -10,2 C 89 % 1028,0 hPa 0,0 l/m 0,0 km/h (0 Bft) N 0 0 min 0,000 mm 0 W/m -11,8 C -10,3 C 0,0 km/h (0 Bft) 100 %
22.01.2017 03:50 -10,3 C -10,3 C -10,3 C 89 % 1027,9 hPa 0,0 l/m 0,0 km/h (0 Bft) N 0 0 min 0,000 mm 0 W/m -11,8 C -10,3 C 0,0 km/h (0 Bft) 100 %
22.01.2017 04:00 -10,2 C -10,3 C -10,2 C 89 % 1027,8 hPa 0,0 l/m 0,0 km/h (0 Bft) N 0 0 min 0,000 mm 0 W/m -11,7 C -10,2 C 0,0 km/h (0 Bft) 89 %
22.01.2017 04:10 -10,0 C -10,2 C -9,9 C 90 % 1027,8 hPa 0,0 l/m 0,0 km/h (0 Bft) N 0 0 min 0,000 mm 0 W/m -11,3 C -10,0 C 0,0 km/h (0 Bft) 98 %
22.01.2017 04:20 -9,9 C -9,9 C -9,9 C 89 % 1027,8 hPa 0,0 l/m 0,0 km/h (0 Bft) N 0 0 min 0,000 mm 0 W/m -11,4 C -9,9 C 0,0 km/h (0 Bft) 98 %
22.01.2017 04:30 -10,1 C -10,1 C -9,9 C 88 % 1027,7 hPa 0,0 l/m 0,0 km/h (0 Bft) N 0 0 min 0,000 mm 0 W/m -11,7 C -10,1 C 0,0 km/h (0 Bft) 98 %
22.01.2017 04:40 -10,4 C -10,4 C -10,1 C 88 % 1027,7 hPa 0,0 l/m 0,0 km/h (0 Bft) N 0 0 min 0,000 mm 0 W/m -12,0 C -10,4 C 0,0 km/h (0 Bft) 97 %
22.01.2017 04:50 -10,6 C -10,6 C -10,4 C 88 % 1027,7 hPa 0,0 l/m 0,0 km/h (0 Bft) N 0 0 min 0,000 mm 0 W/m -12,2 C -10,6 C 0,0 km/h (0 Bft) 88 %
22.01.2017 05:00 -10,7 C -10,7 C -10,6 C 88 % 1027,6 hPa 0,0 l/m 0,0 km/h (0 Bft) N 0 0 min 0,000 mm 0 W/m -12,3 C -10,7 C 0,0 km/h (0 Bft) 97 %
22.01.2017 05:10 -10,9 C -10,9 C -10,7 C 89 % 1027,7 hPa 0,0 l/m 0,0 km/h (0 Bft) N 0 0 min 0,000 mm 0 W/m -12,3 C -10,9 C 0,0 km/h (0 Bft) 98 %
22.01.2017 05:20 -11,0 C -11,0 C -10,9 C 89 % 1027,7 hPa 0,0 l/m 0,0 km/h (0 Bft) N 0 0 min 0,000 mm 0 W/m -12,4 C -11,0 C 0,0 km/h (0 Bft) 97 %
22.01.2017 05:30 -11,1 C -11,1 C -11,0 C 89 % 1027,8 hPa 0,0 l/m 0,0 km/h (0 Bft) N 0 0 min 0,000 mm 0 W/m -12,5 C -11,1 C 0,0 km/h (0 Bft) 98 %
22.01.2017 05:40 -11,3 C -11,3 C -11,1 C 89 % 1027,7 hPa 0,0 l/m 0,0 km/h (0 Bft) N 0 0 min 0,000 mm 0 W/m -12,7 C -11,3 C 0,0 km/h (0 Bft) 98 %
22.01.2017 05:50 -11,4 C -11,4 C -11,3 C 89 % 1027,6 hPa 0,0 l/m 0,0 km/h (0 Bft) N 0 0 min 0,000 mm 0 W/m -12,8 C -11,4 C 0,0 km/h (0 Bft) 97 %
22.01.2017 06:00 -11,6 C -11,6 C -11,4 C 89 % 1027,5 hPa 0,0 l/m 0,0 km/h (0 Bft) N 0 0 min 0,000 mm 0 W/m -13,0 C -11,6 C 0,0 km/h (0 Bft) 98 %
22.01.2017 06:10 -11,7 C -11,7 C -11,6 C 89 % 1027,5 hPa 0,0 l/m 0,0 km/h (0 Bft) N 0 0 min 0,000 mm 0 W/m -13,1 C -11,7 C 0,0 km/h (0 Bft) 97 %
22.01.2017 06:20 -11,8 C -11,8 C -11,7 C 89 % 1027,4 hPa 0,0 l/m 0,0 km/h (0 Bft) N 0 0 min 0,000 mm 0 W/m -13,2 C -11,8 C 0,0 km/h (0 Bft) 98 %
22.01.2017 06:30 -11,9 C -11,9 C -11,8 C 89 % 1027,3 hPa 0,0 l/m 0,0 km/h (0 Bft) N 0 0 min 0,000 mm 0 W/m -13,3 C -11,9 C 0,0 km/h (0 Bft) 97 %
22.01.2017 06:40 -11,9 C -11,9 C -11,9 C 90 % 1027,2 hPa 0,0 l/m 0,0 km/h (0 Bft) N 0 0 min 0,000 mm 0 W/m -13,2 C -11,9 C 0,0 km/h (0 Bft) 98 %
22.01.2017 06:50 -12,0 C -12,1 C -11,9 C 90 % 1027,3 hPa 0,0 l/m 0,0 km/h (0 Bft) N 0 0 min 0,000 mm 0 W/m -13,3 C -12,0 C 0,0 km/h (0 Bft) 97 %
22.01.2017 07:00 -12,1 C -12,1 C -12,1 C 90 % 1027,3 hPa 0,0 l/m 0,0 km/h (0 Bft) N 0 0 min 0,000 mm 0 W/m -13,4 C -12,1 C 0,0 km/h (0 Bft) 98 %
22.01.2017 07:10 -12,1 C -12,1 C -12,1 C 90 % 1027,2 hPa 0,0 l/m 0,0 km/h (0 Bft) N 0 0 min 0,000 mm 0 W/m -13,4 C -12,1 C 0,0 km/h (0 Bft) 98 %
22.01.2017 07:20 -12,1 C -12,1 C -12,1 C 90 % 1027,2 hPa 0,0 l/m 0,0 km/h (0 Bft) N 0 0 min 0,000 mm 0 W/m -13,4 C -12,1 C 0,0 km/h (0 Bft) 97 %
22.01.2017 07:30 -12,1 C -12,1 C -12,1 C 90 % 1027,3 hPa 0,0 l/m 0,0 km/h (0 Bft) N 0 0 min 0,000 mm 0 W/m -13,4 C -12,1 C 0,0 km/h (0 Bft) 98 %
22.01.2017 07:40 -12,0 C -12,1 C -12,0 C 90 % 1027,4 hPa 0,0 l/m 0,0 km/h (0 Bft) N 0 0 min 0,000 mm 0 W/m -13,3 C -12,0 C 0,0 km/h (0 Bft) 97 %
22.01.2017 07:50 -11,9 C -12,1 C -11,9 C 90 % 1027,4 hPa 0,0 l/m 0,0 km/h (0 Bft) N 0 0 min 0,000 mm 0 W/m -13,2 C -11,9 C 0,0 km/h (0 Bft) 98 %
22.01.2017 08:00 -11,8 C -12,0 C -11,8 C 91 % 1027,3 hPa 0,0 l/m 0,0 km/h (0 Bft) N 0 0 min 0,000 mm 0 W/m -13,0 C -11,8 C 0,0 km/h (0 Bft) 97 %
22.01.2017 08:10 -11,7 C -11,8 C -11,7 C 91 % 1027,3 hPa 0,0 l/m 0,0 km/h (0 Bft) N 0 0 min 0,000 mm 5 W/m -12,9 C -11,7 C 0,0 km/h (0 Bft) 97 %
22.01.2017 08:20 -11,7 C -11,7 C -11,7 C 91 % 1027,3 hPa 0,0 l/m 0,0 km/h (0 Bft) N 0 0 min 0,000 mm 11 W/m -12,9 C -11,7 C 0,0 km/h (0 Bft) 89 %
22.01.2017 08:30 -11,7 C -11,7 C -11,7 C 91 % 1027,1 hPa 0,0 l/m 0,0 km/h (0 Bft) N 0 0 min 0,000 mm 16 W/m -12,9 C -11,7 C 0,0 km/h (0 Bft) 97 %
22.01.2017 08:40 -11,7 C -11,7 C -11,7 C 90 % 1027,1 hPa 0,0 l/m 0,0 km/h (0 Bft) N-NW 337 0 min 0,000 mm 23 W/m -13,0 C -11,7 C 3,2 km/h (1 Bft) 99 %
22.01.2017 08:50 -11,7 C -11,7 C -11,7 C 90 % 1027,1 hPa 0,0 l/m 0,0 km/h (0 Bft) N 0 0 min 0,000 mm 30 W/m -13,0 C -11,7 C 0,0 km/h (0 Bft) 100 %
22.01.2017 09:00 -11,7 C -11,7 C -11,7 C 90 % 1027,1 hPa 0,0 l/m 0,0 km/h (0 Bft) N 0 0 min 0,000 mm 42 W/m -13,0 C -11,7 C 0,0 km/h (0 Bft) 100 %
22.01.2017 09:10 -11,6 C -11,7 C -11,6 C 90 % 1027,2 hPa 0,0 l/m 0,0 km/h (0 Bft) N 0 0 min 0,000 mm 62 W/m -12,9 C -11,6 C 0,0 km/h (0 Bft) 100 %
22.01.2017 09:20 -11,2 C -11,6 C -11,2 C 91 % 1027,5 hPa 0,0 l/m 0,0 km/h (0 Bft) N 0 0 min 0,000 mm 98 W/m -12,4 C -11,2 C 0,0 km/h (0 Bft) 100 %
22.01.2017 09:30 -10,6 C -11,2 C -10,6 C 91 % 1027,4 hPa 0,0 l/m 0,0 km/h (0 Bft) N 0 0 min 0,000 mm 120 W/m -11,8 C -10,6 C 0,0 km/h (0 Bft) 100 %
22.01.2017 09:40 -9,8 C -10,6 C -9,8 C 91 % 1027,6 hPa 0,0 l/m 0,0 km/h (0 Bft) N 0 0 min 0,000 mm 139 W/m -11,0 C -9,8 C 0,0 km/h (0 Bft) 100 %
22.01.2017 09:50 -9,0 C -9,8 C -9,0 C 90 % 1027,5 hPa 0,0 l/m 0,0 km/h (0 Bft) N-NW 337 10 min 0,000 mm 162 W/m -10,3 C -9,0 C 3,2 km/h (1 Bft) 100 %
22.01.2017 10:00 -8,4 C -8,9 C -8,4 C 88 % 1027,4 hPa 0,0 l/m 0,0 km/h (0 Bft) N 0 10 min 0,025 mm 181 W/m -10,0 C -8,4 C 0,0 km/h (0 Bft) 97 %
22.01.2017 10:20 -7,6 C -8,9 C -7,5 C 84 % 1027,4 hPa 0,0 l/m 0,0 km/h (0 Bft) N-NW 343 20 min 0,000 mm 214 W/m -9,8 C -7,6 C 0,0 km/h (0 Bft) 100 %
22.01.2017 10:30 -7,1 C -7,6 C -7,1 C 84 % 1027,4 hPa 0,0 l/m 0,0 km/h (0 Bft) N-NW 343 10 min 0,000 mm 230 W/m -9,3 C -7,1 C 0,0 km/h (0 Bft) 100 %
22.01.2017 10:40 -6,4 C -7,1 C -6,4 C 83 % 1027,4 hPa 0,0 l/m 0,0 km/h (0 Bft) N-NW 343 10 min 0,000 mm 246 W/m -8,8 C -6,4 C 0,0 km/h (0 Bft) 100 %
22.01.2017 10:50 -5,8 C -6,4 C -5,8 C 80 % 1027,5 hPa 0,0 l/m 0,8 km/h (0 Bft) N 5 10 min 0,000 mm 257 W/m -8,7 C -5,8 C 4,8 km/h (1 Bft) 100 %
22.01.2017 11:00 -5,6 C -5,8 C -5,6 C 79 % 1027,4 hPa 0,0 l/m 1,3 km/h (1 Bft) N-NO 15 10 min 0,051 mm 274 W/m -8,6 C -5,6 C 6,4 km/h (2 Bft) 100 %
22.01.2017 11:10 -5,3 C -5,6 C -5,3 C 78 % 1027,4 hPa 0,0 l/m 0,6 km/h (0 Bft) N-NO 16 10 min 0,000 mm 283 W/m -8,5 C -5,3 C 4,8 km/h (1 Bft) 100 %
22.01.2017 11:20 -5,2 C -5,3 C -5,2 C 78 % 1027,3 hPa 0,0 l/m 1,4 km/h (1 Bft) N-NO 18 10 min 0,000 mm 297 W/m -8,4 C -5,2 C 4,8 km/h (1 Bft) 100 %
22.01.2017 11:30 -5,1 C -5,2 C -5,1 C 78 % 1027,2 hPa 0,0 l/m 1,6 km/h (1 Bft) N-NO 24 10 min 0,000 mm 308 W/m -8,3 C -5,1 C 4,8 km/h (1 Bft) 100 %
22.01.2017 11:40 -5,0 C -5,1 C -4,9 C 77 % 1027,2 hPa 0,0 l/m 1,0 km/h (0 Bft) N-NO 26 10 min 0,000 mm 318 W/m -8,4 C -5,0 C 6,4 km/h (2 Bft) 100 %
22.01.2017 11:50 -4,9 C -5,0 C -4,9 C 77 % 1027,0 hPa 0,0 l/m 1,2 km/h (1 Bft) N-NO 26 10 min 0,000 mm 330 W/m -8,3 C -4,9 C 6,4 km/h (2 Bft) 100 %
22.01.2017 12:00 -4,7 C -4,9 C -4,7 C 77 % 1026,9 hPa 0,0 l/m 1,5 km/h (1 Bft) N-NO 26 10 min 0,076 mm 318 W/m -8,1 C -4,7 C 4,8 km/h (1 Bft) 100 %
22.01.2017 12:10 -4,6 C -4,7 C -4,6 C 76 % 1026,8 hPa 0,0 l/m 1,3 km/h (1 Bft) N-NO 26 10 min 0,000 mm 336 W/m -8,2 C -4,6 C 6,4 km/h (2 Bft) 100 %
22.01.2017 12:20 -4,4 C -4,6 C -4,4 C 76 % 1026,7 hPa 0,0 l/m 1,8 km/h (1 Bft) N-NO 32 10 min 0,000 mm 339 W/m -8,0 C -4,4 C 4,8 km/h (1 Bft) 100 %
22.01.2017 12:30 -4,1 C -4,4 C -4,1 C 76 % 1026,3 hPa 0,0 l/m 0,5 km/h (0 Bft) N-NO 31 10 min 0,000 mm 341 W/m -7,7 C -4,1 C 4,8 km/h (1 Bft) 100 %
22.01.2017 12:40 -3,8 C -4,1 C -3,8 C 76 % 1026,2 hPa 0,0 l/m 0,0 km/h (0 Bft) N-NO 32 10 min 0,000 mm 338 W/m -7,4 C -3,8 C 0,0 km/h (0 Bft) 97 %
22.01.2017 12:50 -3,6 C -3,8 C -3,6 C 74 % 1026,1 hPa 0,0 l/m 0,3 km/h (0 Bft) N-NO 31 10 min 0,000 mm 160 W/m -7,5 C -3,6 C 4,8 km/h (1 Bft) 97 %
22.01.2017 13:00 -3,4 C -3,6 C -3,4 C 74 % 1026,0 hPa 0,0 l/m 1,3 km/h (1 Bft) N-NO 32 10 min 0,077 mm 334 W/m -7,4 C -3,4 C 6,4 km/h (2 Bft) 98 %
22.01.2017 13:10 -3,3 C -3,4 C -3,3 C 74 % 1025,8 hPa 0,0 l/m 0,3 km/h (0 Bft) N-NO 33 10 min 0,000 mm 246 W/m -7,3 C -3,3 C 4,8 km/h (1 Bft) 97 %
22.01.2017 13:20 -3,2 C -3,3 C -3,2 C 73 % 1025,7 hPa 0,0 l/m 1,2 km/h (1 Bft) NO 42 10 min 0,000 mm 294 W/m -7,3 C -3,2 C 6,4 km/h (2 Bft) 97 %
22.01.2017 13:30 -3,0 C -3,2 C -3,0 C 73 % 1025,7 hPa 0,0 l/m 0,4 km/h (0 Bft) NO 35 10 min 0,000 mm 279 W/m -7,1 C -3,0 C 6,4 km/h (2 Bft) 97 %
22.01.2017 13:40 -2,8 C -3,0 C -2,8 C 73 % 1025,7 hPa 0,0 l/m 0,1 km/h (0 Bft) NO 34 10 min 0,000 mm 207 W/m -6,9 C -2,8 C 4,8 km/h (1 Bft) 97 %
22.01.2017 13:50 -2,8 C -2,8 C -2,8 C 73 % 1025,6 hPa 0,0 l/m 0,0 km/h (0 Bft) NO 34 10 min 0,000 mm 292 W/m -6,9 C -2,8 C 0,0 km/h (0 Bft) 98 %
22.01.2017 14:00 -2,7 C -2,8 C -2,7 C 72 % 1025,5 hPa 0,0 l/m 0,3 km/h (0 Bft) NO 34 10 min 0,076 mm 162 W/m -7,0 C -2,7 C 4,8 km/h (1 Bft) 97 %
22.01.2017 14:10 -2,6 C -2,7 C -2,6 C 72 % 1025,5 hPa 0,0 l/m 0,1 km/h (0 Bft) NO 36 10 min 0,000 mm 260 W/m -6,9 C -2,6 C 3,2 km/h (1 Bft) 89 %
22.01.2017 14:20 -2,7 C -2,7 C -2,6 C 72 % 1025,4 hPa 0,0 l/m 0,5 km/h (0 Bft) NO 37 10 min 0,000 mm 253 W/m -7,0 C -2,7 C 4,8 km/h (1 Bft) 97 %
22.01.2017 14:30 -2,8 C -2,8 C -2,7 C 73 % 1025,3 hPa 0,0 l/m 0,1 km/h (0 Bft) NO 37 10 min 0,000 mm 216 W/m -6,9 C -2,8 C 3,2 km/h (1 Bft) 98 %
22.01.2017 14:40 -2,8 C -2,8 C -2,8 C 73 % 1025,4 hPa 0,0 l/m 0,1 km/h (0 Bft) NO 37 10 min 0,000 mm 221 W/m -6,9 C -2,8 C 3,2 km/h (1 Bft) 97 %
22.01.2017 14:50 -2,6 C -2,8 C -2,6 C 73 % 1025,4 hPa 0,0 l/m 0,2 km/h (0 Bft) NO 37 10 min 0,000 mm 200 W/m -6,8 C -2,6 C 3,2 km/h (1 Bft) 97 %
22.01.2017 15:00 -2,6 C -2,6 C -2,6 C 72 % 1025,4 hPa 0,0 l/m 0,0 km/h (0 Bft) NO 37 0 min 0,000 mm 148 W/m -6,9 C -2,6 C 1,6 km/h (1 Bft) 97 %
22.01.2017 15:10 -2,7 C -2,7 C -2,6 C 73 % 1025,3 hPa 0,0 l/m 0,0 km/h (0 Bft) NO 37 0 min 0,076 mm 70 W/m -6,9 C -2,7 C 1,6 km/h (1 Bft) 97 %
22.01.2017 15:20 -2,9 C -2,9 C -2,7 C 73 % 1025,4 hPa 0,0 l/m 0,0 km/h (0 Bft) NO 37 0 min 0,000 mm 54 W/m -7,0 C -2,9 C 1,6 km/h (1 Bft) 97 %
22.01.2017 15:30 -2,9 C -2,9 C -2,9 C 73 % 1025,4 hPa 0,0 l/m 0,9 km/h (0 Bft) NO 37 0 min 0,000 mm 51 W/m -7,0 C -2,9 C 4,8 km/h (1 Bft) 97 %
22.01.2017 15:40 -2,9 C -3,0 C -2,9 C 73 % 1025,3 hPa 0,0 l/m 0,1 km/h (0 Bft) NO 37 0 min 0,000 mm 46 W/m -7,0 C -2,9 C 4,8 km/h (1 Bft) 97 %
22.01.2017 15:50 -3,2 C -3,2 C -2,9 C 74 % 1025,3 hPa 0,0 l/m 0,0 km/h (0 Bft) NO 37 0 min 0,000 mm 40 W/m -7,2 C -3,2 C 0,0 km/h (0 Bft) 89 %
22.01.2017 16:00 -3,3 C -3,3 C -3,2 C 75 % 1025,3 hPa 0,0 l/m 0,0 km/h (0 Bft) NO 37 0 min 0,025 mm 35 W/m -7,1 C -3,3 C 0,0 km/h (0 Bft) 97 %
22.01.2017 16:10 -3,4 C -3,4 C -3,3 C 75 % 1025,3 hPa 0,0 l/m 0,0 km/h (0 Bft) NO 37 0 min 0,000 mm 32 W/m -7,2 C -3,4 C 0,0 km/h (0 Bft) 99 %
22.01.2017 16:20 -3,6 C -3,6 C -3,4 C 75 % 1025,3 hPa 0,0 l/m 0,0 km/h (0 Bft) NO 37 0 min 0,000 mm 26 W/m -7,4 C -3,6 C 0,0 km/h (0 Bft) 99 %
22.01.2017 16:30 -3,8 C -3,8 C -3,6 C 76 % 1025,2 hPa 0,0 l/m 0,9 km/h (0 Bft) NO 37 0 min 0,000 mm 21 W/m -7,4 C -3,8 C 3,2 km/h (1 Bft) 98 %
22.01.2017 16:40 -4,0 C -4,0 C -3,8 C 76 % 1025,3 hPa 0,0 l/m 1,2 km/h (1 Bft) NO 37 0 min 0,000 mm 14 W/m -7,6 C -4,0 C 3,2 km/h (1 Bft) 99 %
22.01.2017 16:50 -4,2 C -4,2 C -4,0 C 77 % 1025,3 hPa 0,0 l/m 0,0 km/h (0 Bft) NO 37 0 min 0,000 mm 9 W/m -7,6 C -4,2 C 0,0 km/h (0 Bft) 98 %
22.01.2017 17:00 -4,5 C -4,5 C -4,2 C 78 % 1025,3 hPa 0,0 l/m 0,0 km/h (0 Bft) NO 37 0 min 0,000 mm 0 W/m -7,7 C -4,5 C 0,0 km/h (0 Bft) 99 %
22.01.2017 17:10 -4,8 C -4,8 C -4,5 C 78 % 1025,3 hPa 0,0 l/m 0,0 km/h (0 Bft) NO 37 0 min 0,000 mm 0 W/m -8,0 C -4,8 C 0,0 km/h (0 Bft) 96 %
22.01.2017 17:20 -5,1 C -5,1 C -4,8 C 79 % 1025,2 hPa 0,0 l/m 0,0 km/h (0 Bft) NO 37 0 min 0,000 mm 0 W/m -8,2 C -5,1 C 0,0 km/h (0 Bft) 99 %
22.01.2017 17:30 -5,3 C -5,3 C -5,1 C 80 % 1025,4 hPa 0,0 l/m 0,0 km/h (0 Bft) NO 37 0 min 0,000 mm 0 W/m -8,2 C -5,3 C 0,0 km/h (0 Bft) 90 %
22.01.2017 17:40 -5,5 C -5,5 C -5,3 C 80 % 1025,4 hPa 0,0 l/m 0,0 km/h (0 Bft) NO 37 0 min 0,000 mm 0 W/m -8,4 C -5,5 C 0,0 km/h (0 Bft) 99 %
22.01.2017 17:50 -5,7 C -5,7 C -5,5 C 81 % 1025,5 hPa 0,0 l/m 0,0 km/h (0 Bft) NO 37 0 min 0,000 mm 0 W/m -8,4 C -5,7 C 0,0 km/h (0 Bft) 99 %
22.01.2017 18:00 -5,9 C -5,9 C -5,7 C 82 % 1025,5 hPa 0,0 l/m 0,0 km/h (0 Bft) NO 37 0 min 0,000 mm 0 W/m -8,5 C -5,9 C 0,0 km/h (0 Bft) 100 %
22.01.2017 18:10 -5,9 C -5,9 C -5,9 C 82 % 1025,5 hPa 0,0 l/m 0,0 km/h (0 Bft) NO 37 0 min 0,000 mm 0 W/m -8,5 C -5,9 C 0,0 km/h (0 Bft) 97 %
22.01.2017 18:20 -6,1 C -6,1 C -5,9 C 82 % 1025,4 hPa 0,0 l/m 0,0 km/h (0 Bft) NO 37 0 min 0,000 mm 0 W/m -8,7 C -6,1 C 0,0 km/h (0 Bft) 97 %
22.01.2017 18:30 -6,1 C -6,1 C -6,1 C 82 % 1025,5 hPa 0,0 l/m 0,0 km/h (0 Bft) NO 37 0 min 0,000 mm 0 W/m -8,7 C -6,1 C 0,0 km/h (0 Bft) 97 %
22.01.2017 18:40 -6,3 C -6,3 C -6,1 C 83 % 1025,5 hPa 0,0 l/m 0,0 km/h (0 Bft) NO 37 0 min 0,000 mm 0 W/m -8,7 C -6,3 C 0,0 km/h (0 Bft) 97 %
22.01.2017 18:50 -6,5 C -6,5 C -6,3 C 83 % 1025,5 hPa 0,0 l/m 0,3 km/h (0 Bft) NO 37 0 min 0,000 mm 0 W/m -8,9 C -6,5 C 3,2 km/h (1 Bft) 97 %
22.01.2017 19:00 -6,8 C -6,8 C -6,5 C 84 % 1025,5 hPa 0,0 l/m 0,0 km/h (0 Bft) NO 37 0 min 0,000 mm 0 W/m -9,0 C -6,8 C 0,0 km/h (0 Bft) 97 %
22.01.2017 19:10 -6,9 C -6,9 C -6,8 C 84 % 1025,4 hPa 0,0 l/m 0,0 km/h (0 Bft) NO 37 0 min 0,000 mm 0 W/m -9,1 C -6,9 C 0,0 km/h (0 Bft) 97 %
22.01.2017 19:20 -7,1 C -7,1 C -6,9 C 85 % 1025,5 hPa 0,0 l/m 0,0 km/h (0 Bft) NO 37 0 min 0,000 mm 0 W/m -9,2 C -7,1 C 0,0 km/h (0 Bft) 97 %
22.01.2017 19:30 -7,2 C -7,2 C -7,1 C 85 % 1025,6 hPa 0,0 l/m 0,0 km/h (0 Bft) NO 37 0 min 0,000 mm 0 W/m -9,3 C -7,2 C 0,0 km/h (0 Bft) 98 %
22.01.2017 19:40 -7,6 C -7,6 C -7,2 C 84 % 1025,6 hPa 0,0 l/m 0,0 km/h (0 Bft) NO 37 0 min 0,000 mm 0 W/m -9,8 C -7,6 C 0,0 km/h (0 Bft) 98 %
22.01.2017 19:50 -7,8 C -7,8 C -7,6 C 86 % 1025,7 hPa 0,0 l/m 0,0 km/h (0 Bft) NO 37 0 min 0,000 mm 0 W/m -9,7 C -7,8 C 0,0 km/h (0 Bft) 97 %
22.01.2017 20:00 -8,3 C -8,3 C -7,8 C 84 % 1025,8 hPa 0,0 l/m 0,0 km/h (0 Bft) NO 37 0 min 0,000 mm 0 W/m -10,5 C -8,3 C 0,0 km/h (0 Bft) 97 %
22.01.2017 20:10 -8,8 C -8,8 C -8,3 C 86 % 1025,6 hPa 0,0 l/m 0,0 km/h (0 Bft) NO 37 0 min 0,000 mm 0 W/m -10,7 C -8,8 C 0,0 km/h (0 Bft) 89 %
22.01.2017 20:20 -8,9 C -8,9 C -8,8 C 87 % 1025,8 hPa 0,0 l/m 0,0 km/h (0 Bft) NO 37 0 min 0,000 mm 0 W/m -10,7 C -8,9 C 0,0 km/h (0 Bft) 97 %
22.01.2017 20:30 -9,3 C -9,3 C -8,9 C 86 % 1025,7 hPa 0,0 l/m 0,0 km/h (0 Bft) NO 37 0 min 0,000 mm 0 W/m -11,2 C -9,3 C 0,0 km/h (0 Bft) 97 %
22.01.2017 20:40 -9,6 C -9,6 C -9,3 C 88 % 1025,7 hPa 0,0 l/m 0,0 km/h (0 Bft) NO 37 0 min 0,000 mm 0 W/m -11,2 C -9,6 C 1,6 km/h (1 Bft) 96 %
22.01.2017 20:50 -8,9 C -9,6 C -8,9 C 91 % 1025,6 hPa 0,0 l/m 1,1 km/h (1 Bft) NO 37 0 min 0,000 mm 0 W/m -10,1 C -8,9 C 3,2 km/h (1 Bft) 97 %
22.01.2017 21:00 -8,8 C -8,9 C -8,6 C 88 % 1025,7 hPa 0,0 l/m 0,1 km/h (0 Bft) N-NO 32 0 min 0,000 mm 0 W/m -10,4 C -8,8 C 3,2 km/h (1 Bft) 97 %
22.01.2017 21:10 -9,4 C -9,4 C -8,8 C 86 % 1025,8 hPa 0,0 l/m 0,2 km/h (0 Bft) N 10 0 min 0,000 mm 0 W/m -11,3 C -9,4 C 4,8 km/h (1 Bft) 98 %
22.01.2017 21:20 -9,9 C -9,9 C -9,4 C 87 % 1025,8 hPa 0,0 l/m 1,8 km/h (1 Bft) N 5 0 min 0,000 mm 0 W/m -11,6 C -9,9 C 3,2 km/h (1 Bft) 97 %
22.01.2017 21:30 -10,3 C -10,3 C -9,9 C 87 % 1026,0 hPa 0,0 l/m 0,0 km/h (0 Bft) N 5 0 min 0,000 mm 0 W/m -12,0 C -10,3 C 0,0 km/h (0 Bft) 96 %
22.01.2017 21:40 -10,5 C -10,5 C -10,3 C 88 % 1025,9 hPa 0,0 l/m 0,0 km/h (0 Bft) N 5 0 min 0,000 mm 0 W/m -12,1 C -10,5 C 0,0 km/h (0 Bft) 97 %
22.01.2017 21:50 -10,4 C -10,5 C -10,4 C 89 % 1025,9 hPa 0,0 l/m 0,0 km/h (0 Bft) N 5 0 min 0,000 mm 0 W/m -11,9 C -10,4 C 0,0 km/h (0 Bft) 99 %
22.01.2017 22:00 -10,4 C -10,4 C -10,4 C 89 % 1025,9 hPa 0,0 l/m 0,1 km/h (0 Bft) N 5 0 min 0,000 mm 0 W/m -11,9 C -10,4 C 3,2 km/h (1 Bft) 90 %
22.01.2017 22:10 -10,3 C -10,4 C -10,3 C 90 % 1025,9 hPa 0,0 l/m 0,3 km/h (0 Bft) N 5 0 min 0,000 mm 0 W/m -11,6 C -10,3 C 3,2 km/h (1 Bft) 100 %
22.01.2017 22:20 -10,2 C -10,3 C -10,2 C 90 % 1025,9 hPa 0,0 l/m 0,0 km/h (0 Bft) N 5 0 min 0,000 mm 0 W/m -11,5 C -10,2 C 0,0 km/h (0 Bft) 100 %
22.01.2017 22:30 -10,5 C -10,5 C -10,2 C 89 % 1025,9 hPa 0,0 l/m 0,0 km/h (0 Bft) N 5 0 min 0,000 mm 0 W/m -12,0 C -10,5 C 0,0 km/h (0 Bft) 100 %
22.01.2017 22:40 -10,9 C -10,9 C -10,5 C 89 % 1025,9 hPa 0,0 l/m 0,0 km/h (0 Bft) N 360 0 min 0,000 mm 0 W/m -12,3 C -10,9 C 3,2 km/h (1 Bft) 100 %
22.01.2017 22:50 -11,1 C -11,1 C -10,9 C 89 % 1025,9 hPa 0,0 l/m 0,0 km/h (0 Bft) N 0 0 min 0,000 mm 0 W/m -12,5 C -11,1 C 0,0 km/h (0 Bft) 100 %
22.01.2017 23:00 -11,6 C -11,6 C -11,1 C 88 % 1026,0 hPa 0,0 l/m 1,6 km/h (1 Bft) N 360 0 min 0,000 mm 0 W/m -13,2 C -11,6 C 3,2 km/h (1 Bft) 100 %
22.01.2017 23:10 -11,8 C -11,8 C -11,6 C 89 % 1026,0 hPa 0,0 l/m 1,6 km/h (1 Bft) N 360 0 min 0,000 mm 0 W/m -13,2 C -11,8 C 3,2 km/h (1 Bft) 100 %
22.01.2017 23:20 -11,7 C -11,9 C -11,6 C 90 % 1026,0 hPa 0,0 l/m 0,0 km/h (0 Bft) N 0 0 min 0,000 mm 0 W/m -13,0 C -11,7 C 0,0 km/h (0 Bft) 100 %
22.01.2017 23:30 -11,4 C -11,7 C -11,4 C 91 % 1026,1 hPa 0,0 l/m 0,0 km/h (0 Bft) N 0 0 min 0,000 mm 0 W/m -12,6 C -11,4 C 0,0 km/h (0 Bft) 100 %
22.01.2017 23:40 -11,4 C -11,4 C -11,4 C 91 % 1026,1 hPa 0,0 l/m 0,0 km/h (0 Bft) N 0 0 min 0,000 mm 0 W/m -12,6 C -11,4 C 0,0 km/h (0 Bft) 100 %
22.01.2017 23:50 -11,8 C -11,8 C -11,4 C 89 % 1026,0 hPa 0,0 l/m 1,6 km/h (1 Bft) N 360 0 min 0,000 mm 0 W/m -13,2 C -11,8 C 4,8 km/h (1 Bft) 100 %
_ Min-Zeit 06:50 06:50 07:00 14:00 16:30 - 00:00 - - - - - 07:00 07:00 00:00 00:10
Minimum _ -12,1 C -12,1 C -12,1 C 72 % 1025,2 hPa - 0,0 km/h (0 Bft) - - - - - -13,4 C -12,1 C 0,0 km/h (0 Bft) 81 %
_ Max-Zeit 14:10 15:00 14:10 08:00 00:00 00:00 12:20 - - 10:20 13:00 12:30 14:50 14:10 11:00 00:00
Maximum _ -2,6 C -2,6 C -2,6 C 91 % 1028,9 hPa 0,0 l/m 1,8 km/h
N-NO (1 Bft)
- - 20 min 0,077 mm 341 W/m -6,8 C -2,6 C 6,4 km/h
N (2 Bft)
100 %
Durchschnitt _ -8,1 C -8,1 C -7,9 C 84 % 1026,7 hPa #0,0 l/m 0,2 km/h (0 Bft) N-NO - #5:10 h #0,406 mm 173 W/m -10,3 C -8,1 C 1,3 km/h (1 Bft) 98 %
PRIVATE WETTERSTATION BILLIGHEIM-ALLFELD - www.neckar-odenwald-wetter.de - Holger Sonntag